Time;durP1;ratioP1;P1;durP2;ratioP2;P2;SDS_P1;SDS_P2;PMS_P1;PMS_P2;Temp;Humidity;BMP_temperature;BMP_pressure;BME280_temperature;BME280_humidity;BME280_pressure;Samples;Min_cycle;Max_cycle;Signal;HPM_P1;HPM_P2
2022/01/27 00:01:30;;;;;;;55.92;20.95;;;;;;;0.40;83.52;97419.69;4951553;29;20126;-78
2022/01/27 00:04:12;;;;;;;56.47;21.02;;;;;;;0.36;83.51;97413.94;4952356;29;20142;-78
2022/01/27 00:06:40;;;;;;;61.15;20.98;;;;;;;0.42;83.66;97414.94;4952312;28;20058;-78
2022/01/27 00:09:15;;;;;;;52.90;20.15;;;;;;;0.45;82.60;97414.44;4951680;29;20059;-77
2022/01/27 00:11:45;;;;;;;54.88;21.02;;;;;;;0.41;82.60;97407.91;4952483;29;20426;-78
2022/01/27 00:14:13;;;;;;;53.25;20.42;;;;;;;0.37;83.02;97401.41;4951862;29;20047;-78
2022/01/27 00:16:42;;;;;;;55.00;19.85;;;;;;;0.37;83.04;97406.75;4966793;28;20046;-77
2022/01/27 00:19:10;;;;;;;51.63;20.00;;;;;;;0.34;82.88;97396.47;4971148;28;20101;-78
2022/01/27 00:21:37;;;;;;;60.60;22.38;;;;;;;0.31;83.20;97407.63;4971120;28;20047;-78
2022/01/27 00:24:04;;;;;;;62.15;22.27;;;;;;;0.35;83.50;97424.91;4970772;28;20057;-77
2022/01/27 00:26:32;;;;;;;61.17;22.25;;;;;;;0.34;83.18;97424.09;4971227;28;20055;-78
2022/01/27 00:28:59;;;;;;;55.28;22.00;;;;;;;0.35;83.06;97422.22;4970207;28;20054;-78
2022/01/27 00:31:25;;;;;;;57.63;21.55;;;;;;;0.35;83.21;97430.25;4970652;28;20043;-77
2022/01/27 00:33:53;;;;;;;53.88;20.52;;;;;;;0.38;83.56;97424.47;4971406;28;20058;-78
2022/01/27 00:36:20;;;;;;;57.85;22.42;;;;;;;0.40;83.65;97435.75;4970352;28;20051;-77
2022/01/27 00:38:49;;;;;;;57.72;21.80;;;;;;;0.41;83.51;97434.69;4971196;28;20137;-77
2022/01/27 00:41:19;;;;;;;56.53;21.20;;;;;;;0.48;83.20;97416.69;4970388;28;20051;-78
2022/01/27 00:43:48;;;;;;;55.65;20.75;;;;;;;0.48;82.32;97409.47;4971017;28;20550;-79
2022/01/27 00:46:17;;;;;;;52.38;20.83;;;;;;;0.48;82.06;97409.47;4970267;28;20154;-78
2022/01/27 00:48:44;;;;;;;51.08;20.23;;;;;;;0.45;82.06;97411.78;4970927;28;20061;-78
2022/01/27 00:51:12;;;;;;;53.25;21.05;;;;;;;0.49;81.91;97415.66;4970541;28;20047;-77
2022/01/27 00:53:45;;;;;;;47.50;19.63;;;;;;;0.50;81.88;97417.28;4970917;28;20058;-78
2022/01/27 00:56:20;;;;;;;49.72;19.77;;;;;;;0.50;81.60;97422.63;4970364;28;20130;-77
2022/01/27 00:58:57;;;;;;;55.58;21.30;;;;;;;0.43;82.07;97414.69;4953324;28;20043;-78
2022/01/27 01:01:29;;;;;;;53.33;20.48;;;;;;;0.40;82.13;97412.44;4970259;28;20133;-78
2022/01/27 01:03:59;;;;;;;57.25;21.00;;;;;;;0.38;82.06;97406.50;4970660;28;20059;-78
2022/01/27 01:06:36;;;;;;;52.60;21.33;;;;;;;0.37;82.24;97412.09;4969661;28;20490;-78
2022/01/27 01:31:26;;;;;;;49.72;20.00;;;;;;;0.45;80.57;97409.91;4970001;28;20061;-78
2022/01/27 01:33:59;;;;;;;41.60;18.27;;;;;;;0.50;80.80;97417.28;4970338;28;20078;-78
2022/01/27 01:36:35;;;;;;;49.63;19.58;;;;;;;0.51;81.01;97417.03;4969475;28;20070;-77
2022/01/27 01:39:03;;;;;;;46.47;19.20;;;;;;;0.51;80.42;97408.19;4969876;28;20415;-78
2022/01/27 01:41:29;;;;;;;46.70;20.10;;;;;;;0.50;79.89;97406.56;4969583;28;20054;-77
2022/01/27 01:43:56;;;;;;;43.20;18.80;;;;;;;0.43;80.48;97411.19;4969866;28;20423;-78
2022/01/27 01:46:24;;;;;;;47.72;19.73;;;;;;;0.43;80.82;97414.69;4969209;28;20054;-78
2022/01/27 01:48:50;;;;;;;47.22;19.13;;;;;;;0.44;80.54;97407.47;4969903;28;20062;-78
2022/01/27 01:51:23;;;;;;;50.42;19.17;;;;;;;0.44;80.99;97402.09;4969182;28;20059;-78
2022/01/27 01:53:50;;;;;;;49.53;19.85;;;;;;;0.48;80.64;97397.94;4969921;28;20063;-78
2022/01/27 01:56:16;;;;;;;49.22;19.23;;;;;;;0.48;80.06;97397.94;4968784;28;20445;-78
2022/01/27 01:58:43;;;;;;;48.72;20.88;;;;;;;0.47;80.72;97407.00;4969724;28;20059;-78
2022/01/27 02:01:09;;;;;;;56.47;21.35;;;;;;;0.50;80.83;97395.84;4969062;28;20059;-78
2022/01/27 02:03:37;;;;;;;50.17;20.42;;;;;;;0.51;80.27;97392.09;4969581;28;20520;-78
2022/01/27 02:06:05;;;;;;;47.50;20.10;;;;;;;0.45;80.33;97376.94;4968637;28;20061;-78
2022/01/27 02:08:47;;;;;;;48.42;19.48;;;;;;;0.45;80.93;97384.97;4969913;28;20054;-78
2022/01/27 02:19:31;;;;;;;55.35;20.85;;;;;;;0.43;80.87;97384.41;4969344;28;20053;-78
2022/01/27 02:22:01;;;;;;;50.90;20.27;;;;;;;0.37;80.73;97386.13;4969159;28;20046;-78
2022/01/27 02:24:31;;;;;;;54.05;20.25;;;;;;;0.24;81.02;97380.94;4968784;28;20493;-78
2022/01/27 02:26:58;;;;;;;49.35;19.73;;;;;;;0.19;81.61;97368.22;4969458;28;20690;-78
2022/01/27 02:29:26;;;;;;;55.10;21.10;;;;;;;0.14;81.51;97376.13;4968784;28;20069;-78
2022/01/27 02:31:55;;;;;;;53.90;21.35;;;;;;;0.12;82.02;97366.69;4969318;28;20050;-78
2022/01/27 02:34:23;;;;;;;53.22;19.92;;;;;;;0.10;82.29;97369.56;4968365;28;20050;-78
2022/01/27 02:36:50;;;;;;;56.38;21.73;;;;;;;0.15;82.08;97371.56;4969124;28;20134;-78
2022/01/27 02:39:19;;;;;;;47.85;20.38;;;;;;;0.16;82.31;97384.78;4968586;28;20501;-78
2022/01/27 02:41:58;;;;;;;58.65;22.15;;;;;;;0.19;82.35;97378.94;4969407;28;20050;-77
2022/01/27 02:44:33;;;;;;;56.28;21.73;;;;;;;0.25;82.62;97374.53;4968796;28;20078;-78
2022/01/27 02:47:01;;;;;;;56.60;22.08;;;;;;;0.31;81.54;97386.19;4968811;28;20047;-77
2022/01/27 02:49:28;;;;;;;55.80;22.00;;;;;;;0.30;81.08;97377.34;4968872;28;20065;-78
2022/01/27 02:51:54;;;;;;;59.90;23.00;;;;;;;0.32;81.23;97377.16;4968506;28;20061;-78
2022/01/27 02:54:22;;;;;;;52.85;20.52;;;;;;;0.34;81.00;97375.03;4968206;28;20498;-78
2022/01/27 02:56:49;;;;;;;55.10;21.35;;;;;;;0.31;80.90;97364.75;4968727;28;20509;-78
2022/01/27 02:59:17;;;;;;;46.75;19.77;;;;;;;0.21;80.95;97350.09;4968424;28;20054;-77
2022/01/27 03:01:46;;;;;;;53.30;21.38;;;;;;;0.21;81.42;97343.91;4968495;28;20062;-78
2022/01/27 03:04:12;;;;;;;51.45;20.98;;;;;;;0.18;81.27;97337.13;4968214;28;20057;-78
2022/01/27 03:06:39;;;;;;;57.05;23.13;;;;;;;0.14;81.36;97335.94;4968544;28;20059;-78
2022/01/27 03:09:05;;;;;;;52.30;21.67;;;;;;;0.10;81.42;97332.09;4968293;28;20085;-78
2022/01/27 03:11:45;;;;;;;49.72;21.42;;;;;;;0.06;81.72;97347.00;4968752;28;20050;-78
2022/01/27 03:14:13;;;;;;;58.92;22.70;;;;;;;0.12;82.33;97343.41;4968163;28;20142;-78
2022/01/27 03:16:40;;;;;;;51.42;20.63;;;;;;;0.19;81.80;97340.63;4968788;28;20718;-78
2022/01/27 03:19:06;;;;;;;54.90;21.70;;;;;;;0.19;81.63;97330.72;4968070;28;20051;-78
2022/01/27 03:21:33;;;;;;;57.20;22.85;;;;;;;0.20;81.36;97329.66;4968734;28;20485;-79
2022/01/27 03:23:59;;;;;;;56.95;21.35;;;;;;;0.12;81.44;97324.66;4968222;28;20047;-79
2022/01/27 03:26:26;;;;;;;58.38;21.90;;;;;;;0.11;81.67;97333.75;4968306;28;20383;-78
2022/01/27 03:28:54;;;;;;;54.40;21.58;;;;;;;0.11;81.94;97328.38;4968508;28;20102;-78
2022/01/27 03:31:21;;;;;;;57.47;22.92;;;;;;;0.09;81.76;97325.09;4967789;28;20054;-78
2022/01/27 03:33:48;;;;;;;54.28;20.55;;;;;;;0.14;81.97;97321.75;4968649;28;20058;-78
2022/01/27 03:36:15;;;;;;;58.22;22.95;;;;;;;0.15;81.66;97312.66;4967920;28;20524;-78
2022/01/27 03:38:42;;;;;;;52.72;21.48;;;;;;;0.14;81.75;97319.88;4968414;28;20057;-78
2022/01/27 03:41:09;;;;;;;54.00;22.15;;;;;;;0.08;81.69;97334.19;4968107;28;20055;-78
2022/01/27 03:43:37;;;;;;;49.50;21.17;;;;;;;0.08;81.58;97344.09;4966294;28;20043;-78
2022/01/27 03:46:06;;;;;;;56.78;22.98;;;;;;;0.01;81.28;97343.38;4967721;28;20055;-78
2022/01/27 03:48:34;;;;;;;52.35;21.67;;;;;;;0.03;81.43;97346.63;4968301;28;20501;-78
2022/01/27 03:51:00;;;;;;;55.53;22.58;;;;;;;0.06;81.42;97344.31;4968322;28;20080;-78
2022/01/27 03:53:27;;;;;;;58.97;23.70;;;;;;;0.09;81.19;97341.16;4967319;28;20054;-78
2022/01/27 03:55:53;;;;;;;52.72;23.25;;;;;;;0.06;80.80;97341.63;4968073;28;20054;-78
2022/01/27 03:58:20;;;;;;;56.08;23.13;;;;;;;0.02;81.04;97340.44;4967982;28;20047;-78
2022/01/27 04:00:46;;;;;;;58.58;22.83;;;;;;;-0.05;81.26;97339.72;4968600;28;20054;-78
2022/01/27 04:03:16;;;;;;;58.38;23.30;;;;;;;-0.09;81.56;97334.00;4967588;28;20076;-78
2022/01/27 04:05:49;;;;;;;61.30;23.88;;;;;;;-0.13;81.45;97322.09;4971452;28;20058;-77
2022/01/27 04:08:17;;;;;;;58.15;24.20;;;;;;;-0.19;81.94;97314.16;4971454;28;20540;-78
2022/01/27 04:10:44;;;;;;;56.13;23.73;;;;;;;-0.20;82.12;97316.03;4971770;28;20050;-78
2022/01/27 04:13:11;;;;;;;59.10;24.85;;;;;;;-0.20;82.35;97315.22;4969459;28;20058;-78
2022/01/27 04:15:40;;;;;;;60.42;24.05;;;;;;;-0.18;82.19;97302.41;4971392;28;20058;-78
2022/01/27 04:18:06;;;;;;;69.75;26.55;;;;;;;-0.18;82.20;97297.88;4971218;28;20089;-77
2022/01/27 04:20:34;;;;;;;60.63;24.75;;;;;;;-0.18;82.35;97299.72;4971496;28;20084;-78
2022/01/27 04:23:01;;;;;;;58.95;23.83;;;;;;;-0.19;82.32;97298.91;4971417;28;20047;-78
2022/01/27 04:25:27;;;;;;;64.50;25.23;;;;;;;-0.19;82.50;97295.44;4970919;28;20553;-78
2022/01/27 04:27:58;;;;;;;62.08;23.33;;;;;;;-0.23;82.51;97292.38;4971424;28;20506;-78
2022/01/27 04:30:26;;;;;;;62.50;23.98;;;;;;;-0.29;82.86;97291.44;4970965;28;20051;-78
2022/01/27 04:32:56;;;;;;;62.58;25.63;;;;;;;-0.32;83.16;97286.50;4971481;28;20055;-79
2022/01/27 04:35:25;;;;;;;65.55;25.52;;;;;;;-0.33;83.52;97284.06;4970481;28;20057;-78
2022/01/27 04:38:01;;;;;;;66.53;25.48;;;;;;;-0.38;83.58;97292.78;4971200;28;20050;-78
2022/01/27 04:40:34;;;;;;;62.95;24.67;;;;;;;-0.41;84.02;97292.41;4970992;28;20058;-78
2022/01/27 04:43:07;;;;;;;75.25;26.58;;;;;;;-0.44;84.37;97282.97;4970383;28;20050;-78
2022/01/27 04:45:42;;;;;;;68.88;27.85;;;;;;;-0.45;84.53;97276.00;4970659;28;20521;-78
2022/01/27 04:48:12;;;;;;;66.55;25.67;;;;;;;-0.50;84.63;97278.53;4970349;28;20139;-78
2022/01/27 04:50:39;;;;;;;70.28;27.83;;;;;;;-0.52;84.63;97285.97;4971158;28;20066;-78
2022/01/27 04:53:12;;;;;;;70.18;26.20;;;;;;;-0.56;84.83;97279.44;4970427;28;20622;-78
2022/01/27 04:55:39;;;;;;;79.63;28.05;;;;;;;-0.63;84.98;97268.78;4970662;28;20082;-79
2022/01/27 04:58:11;;;;;;;72.22;28.92;;;;;;;-0.65;85.02;97270.06;4970279;28;20057;-78
2022/01/27 05:00:38;;;;;;;72.93;28.05;;;;;;;-0.66;85.23;97268.44;4970500;28;20083;-78
2022/01/27 05:03:13;;;;;;;71.95;28.15;;;;;;;-0.65;85.54;97270.88;4970643;28;20051;-78
2022/01/27 05:05:39;;;;;;;71.72;27.42;;;;;;;-0.64;85.35;97272.50;4970505;28;20487;-78
2022/01/27 05:08:15;;;;;;;80.85;29.77;;;;;;;-0.60;85.29;97267.53;4970193;28;20054;-78
2022/01/27 05:10:41;;;;;;;72.10;27.33;;;;;;;-0.57;85.16;97269.78;4970680;28;20050;-78
2022/01/27 05:13:11;;;;;;;66.80;27.70;;;;;;;-0.56;84.92;97263.38;4969343;28;20055;-78
2022/01/27 05:15:43;;;;;;;70.43;27.10;;;;;;;-0.59;84.50;97253.09;4950361;28;20066;-78
2022/01/27 05:18:10;;;;;;;80.05;28.30;;;;;;;-0.58;84.93;97246.72;4950631;29;20078;-78
2022/01/27 05:20:36;;;;;;;70.07;28.10;;;;;;;-0.57;84.56;97248.38;4951233;29;20054;-78
2022/01/27 05:23:03;;;;;;;79.28;31.08;;;;;;;-0.55;84.54;97248.94;4950648;29;20062;-78
2022/01/27 05:25:31;;;;;;;74.85;29.05;;;;;;;-0.53;84.54;97253.03;4950791;29;20079;-79
2022/01/27 05:27:58;;;;;;;73.43;29.63;;;;;;;-0.51;84.36;97260.84;4950932;29;20051;-78
2022/01/27 05:30:24;;;;;;;74.38;28.88;;;;;;;-0.52;84.20;97253.88;4950373;29;20047;-78
2022/01/27 05:32:51;;;;;;;75.95;29.23;;;;;;;-0.50;84.16;97251.78;4951126;29;20058;-78
2022/01/27 05:35:17;;;;;;;73.90;29.10;;;;;;;-0.52;84.02;97248.50;4950215;29;20717;-78
2022/01/27 05:37:44;;;;;;;76.30;30.58;;;;;;;-0.54;84.13;97253.25;4950855;29;20062;-78
2022/01/27 05:40:11;;;;;;;74.95;29.40;;;;;;;-0.61;84.46;97239.16;4950357;29;20533;-78
2022/01/27 05:42:39;;;;;;;74.68;28.73;;;;;;;-0.64;84.81;97250.28;4950578;29;20501;-78
2022/01/27 05:45:07;;;;;;;79.28;30.45;;;;;;;-0.68;84.74;97249.09;4966356;28;20051;-78
2022/01/27 05:47:33;;;;;;;70.70;29.70;;;;;;;-0.70;84.98;97245.84;4969943;28;20060;-78
2022/01/27 05:50:00;;;;;;;78.13;29.00;;;;;;;-0.72;85.13;97237.25;4969800;28;20510;-78
2022/01/27 05:52:26;;;;;;;71.97;30.67;;;;;;;-0.71;84.87;97238.88;4969593;28;20050;-78
2022/01/27 05:54:53;;;;;;;81.18;31.17;;;;;;;-0.72;84.85;97246.09;4969395;28;20051;-78
2022/01/27 05:57:19;;;;;;;76.47;31.02;;;;;;;-0.74;84.77;97242.78;4968654;28;20051;-78
2022/01/27 05:59:47;;;;;;;74.95;30.83;;;;;;;-0.76;84.92;97241.41;4969368;28;20514;-78
2022/01/27 06:02:14;;;;;;;80.47;30.67;;;;;;;-0.76;85.11;97230.69;4968983;28;20062;-78
2022/01/27 06:04:40;;;;;;;77.78;29.48;;;;;;;-0.80;85.07;97231.13;4969171;28;20059;-78
2022/01/27 06:07:06;;;;;;;80.28;30.30;;;;;;;-0.76;85.25;97228.84;4968459;28;20055;-78
2022/01/27 06:09:33;;;;;;;72.82;29.80;;;;;;;-0.82;85.12;97233.22;4969336;28;20492;-78
2022/01/27 06:11:59;;;;;;;69.57;28.45;;;;;;;-0.84;85.41;97235.28;4969241;28;20059;-78
2022/01/27 06:14:26;;;;;;;80.13;32.38;;;;;;;-0.83;85.34;97236.94;4967417;28;20814;-78
2022/01/27 06:16:54;;;;;;;74.53;29.58;;;;;;;-0.83;85.28;97226.25;4969075;28;20058;-79
2022/01/27 06:19:25;;;;;;;76.03;30.13;;;;;;;-0.84;85.23;97224.59;4968479;28;20055;-76
2022/01/27 06:21:52;;;;;;;75.70;29.58;;;;;;;-0.86;85.38;97213.31;4969360;28;20109;-76
2022/01/27 06:24:18;;;;;;;75.30;31.60;;;;;;;-0.86;85.26;97215.19;4968614;28;20061;-76
2022/01/27 06:26:45;;;;;;;81.65;30.85;;;;;;;-0.89;85.40;97226.31;4968474;28;20054;-76
2022/01/27 06:29:11;;;;;;;75.97;29.83;;;;;;;-0.92;85.44;97222.25;4968676;28;20065;-77
2022/01/27 06:31:38;;;;;;;77.55;29.83;;;;;;;-0.96;85.45;97221.03;4969052;28;20055;-78
2022/01/27 06:34:06;;;;;;;78.65;29.80;;;;;;;-0.99;85.78;97224.19;4968282;28;20061;-78
2022/01/27 06:36:33;;;;;;;72.97;30.10;;;;;;;-0.99;85.90;97226.84;4967487;28;20130;-78
2022/01/27 06:38:59;;;;;;;79.93;30.65;;;;;;;-0.99;85.72;97221.50;4968074;28;20131;-78
2022/01/27 06:41:26;;;;;;;77.43;31.92;;;;;;;-0.99;85.36;97220.66;4967255;28;20088;-78
2022/01/27 06:43:54;;;;;;;77.63;30.95;;;;;;;-1.03;85.57;97220.31;4966642;28;20426;-78
2022/01/27 06:46:20;;;;;;;75.47;31.08;;;;;;;-1.07;85.68;97216.44;4967512;28;20508;-78
2022/01/27 06:48:47;;;;;;;78.13;29.35;;;;;;;-1.11;85.66;97212.59;4968806;28;20055;-78
2022/01/27 06:51:15;;;;;;;78.82;31.38;;;;;;;-1.17;85.82;97213.47;4967542;28;20644;-78
2022/01/27 06:53:41;;;;;;;76.70;31.20;;;;;;;-1.21;86.07;97222.97;4968970;28;20101;-79
2022/01/27 06:56:08;;;;;;;77.57;31.80;;;;;;;-1.23;86.16;97223.19;4967784;28;20070;-78
2022/01/27 06:58:36;;;;;;;82.38;31.65;;;;;;;-1.20;86.05;97229.94;4968595;28;20518;-78
2022/01/27 07:01:02;;;;;;;77.40;31.00;;;;;;;-1.22;86.14;97222.16;4968262;28;20059;-78
2022/01/27 07:03:29;;;;;;;78.22;31.33;;;;;;;-1.22;85.95;97221.34;4968453;28;20082;-78
2022/01/27 07:05:55;;;;;;;85.18;31.95;;;;;;;-1.24;85.72;97212.75;4968399;28;20415;-78
2022/01/27 07:08:23;;;;;;;80.88;30.73;;;;;;;-1.29;85.84;97216.06;4968463;28;20055;-78
2022/01/27 07:10:50;;;;;;;72.60;30.00;;;;;;;-1.34;85.76;97219.41;4968864;28;20101;-78
2022/01/27 07:13:16;;;;;;;74.18;29.08;;;;;;;-1.38;86.09;97220.06;4966590;28;20054;-78
2022/01/27 07:15:43;;;;;;;80.95;31.65;;;;;;;-1.35;86.18;97216.97;4968222;28;20054;-78
2022/01/27 07:18:09;;;;;;;79.05;30.98;;;;;;;-1.32;85.90;97217.31;4968262;28;20047;-78
2022/01/27 07:20:36;;;;;;;67.25;28.95;;;;;;;-1.29;85.87;97217.94;4968795;28;20054;-79
2022/01/27 07:23:03;;;;;;;74.55;31.27;;;;;;;-1.24;85.58;97224.25;4968334;28;20550;-78
2022/01/27 07:25:31;;;;;;;68.32;28.90;;;;;;;-1.22;85.24;97221.34;4968129;28;20825;-78
2022/01/27 07:27:57;;;;;;;71.28;29.23;;;;;;;-1.22;85.05;97210.66;4968657;28;20049;-78
2022/01/27 07:30:24;;;;;;;69.50;29.23;;;;;;;-1.23;84.96;97217.84;4968171;28;20050;-78
2022/01/27 07:32:50;;;;;;;65.68;29.73;;;;;;;-1.23;84.97;97209.84;4968451;28;20171;-78
2022/01/27 07:35:17;;;;;;;68.20;28.38;;;;;;;-1.20;84.64;97220.09;4967637;28;20046;-78
2022/01/27 07:37:45;;;;;;;69.22;29.15;;;;;;;-1.18;84.66;97222.53;4968537;28;20417;-79
2022/01/27 07:40:12;;;;;;;69.10;29.85;;;;;;;-1.10;84.55;97232.91;4971393;28;20135;-79
2022/01/27 07:42:40;;;;;;;63.88;27.98;;;;;;;-1.09;84.10;97232.72;4972261;28;20046;-78
2022/01/27 07:45:07;;;;;;;63.25;27.90;;;;;;;-1.10;84.21;97222.22;4969547;28;20057;-78
2022/01/27 07:47:34;;;;;;;69.50;29.98;;;;;;;-1.07;84.33;97221.78;4971986;28;20058;-77
2022/01/27 07:50:01;;;;;;;62.50;28.33;;;;;;;-1.02;84.14;97221.13;4972167;28;20058;-78
2022/01/27 07:52:28;;;;;;;61.65;27.17;;;;;;;-0.96;83.96;97225.59;4971919;28;20046;-78
2022/01/27 07:54:54;;;;;;;63.15;26.95;;;;;;;-0.85;84.05;97230.19;4971719;28;20050;-78
2022/01/27 07:57:21;;;;;;;62.83;28.45;;;;;;;-0.76;83.40;97230.69;4971341;28;20434;-78
2022/01/27 07:59:48;;;;;;;56.38;24.35;;;;;;;-0.62;83.01;97232.19;4971831;28;20510;-77
2022/01/27 08:02:15;;;;;;;56.88;27.17;;;;;;;-0.45;82.73;97227.81;4971524;28;20043;-78
2022/01/27 08:04:42;;;;;;;61.40;27.15;;;;;;;-0.32;81.83;97224.94;4971737;28;20079;-78
2022/01/27 08:07:10;;;;;;;61.60;25.58;;;;;;;-0.23;81.27;97220.09;4971007;28;20174;-78
2022/01/27 08:09:36;;;;;;;59.95;25.55;;;;;;;-0.13;81.05;97219.56;4972006;28;20051;-78
2022/01/27 08:12:04;;;;;;;53.20;24.92;;;;;;;0.08;80.53;97211.00;4971144;28;20506;-78
2022/01/27 08:14:30;;;;;;;58.47;25.40;;;;;;;0.16;79.55;97208.00;4969671;28;20055;-79
2022/01/27 08:16:58;;;;;;;56.05;25.75;;;;;;;0.16;79.51;97207.19;4971391;28;20498;-78
2022/01/27 08:19:24;;;;;;;52.92;25.30;;;;;;;0.19;79.11;97206.69;4971221;28;20050;-78
2022/01/27 08:21:51;;;;;;;54.17;25.48;;;;;;;0.17;78.78;97203.44;4971728;28;20058;-78
2022/01/27 08:24:18;;;;;;;52.90;23.92;;;;;;;0.24;78.58;97215.66;4970665;28;20054;-78
2022/01/27 08:26:48;;;;;;;55.85;25.13;;;;;;;0.37;78.32;97213.84;4970935;28;20077;-78
2022/01/27 08:29:19;;;;;;;50.42;23.75;;;;;;;0.44;77.61;97214.53;4970969;28;20050;-78
2022/01/27 08:31:58;;;;;;;50.92;23.35;;;;;;;0.43;77.40;97219.09;4971345;28;20422;-78
2022/01/27 08:34:32;;;;;;;49.83;23.25;;;;;;;0.46;77.30;97212.44;4970661;28;20449;-78
2022/01/27 08:37:00;;;;;;;49.20;23.13;;;;;;;0.49;77.13;97218.16;4971241;28;20098;-79
2022/01/27 08:39:27;;;;;;;50.90;23.42;;;;;;;0.46;76.63;97205.19;4970930;28;20059;-78
2022/01/27 08:41:54;;;;;;;46.05;22.10;;;;;;;0.42;77.07;97200.56;4970988;28;20049;-78
2022/01/27 08:44:20;;;;;;;48.72;23.85;;;;;;;0.47;77.44;97200.66;4969814;28;20047;-78
2022/01/27 08:46:47;;;;;;;49.38;22.63;;;;;;;0.53;77.11;97199.75;4970813;28;20054;-78
2022/01/27 08:49:14;;;;;;;48.88;24.40;;;;;;;0.51;77.44;97193.78;4970327;28;20430;-78
2022/01/27 08:51:42;;;;;;;51.88;23.20;;;;;;;0.52;77.15;97184.69;4970155;28;20124;-79
2022/01/27 08:54:08;;;;;;;49.72;23.58;;;;;;;0.62;77.13;97179.56;4970383;28;20059;-78
2022/01/27 08:56:35;;;;;;;48.72;23.40;;;;;;;0.74;76.71;97175.03;4970641;28;20069;-78
2022/01/27 08:59:01;;;;;;;47.10;21.75;;;;;;;0.87;76.19;97170.44;4970389;28;20058;-78
2022/01/27 09:01:28;;;;;;;43.63;21.98;;;;;;;0.87;75.34;97179.31;4970740;28;20426;-78
2022/01/27 09:03:55;;;;;;;41.38;21.85;;;;;;;0.85;75.25;97184.09;4970519;28;20051;-79
2022/01/27 09:06:21;;;;;;;43.45;20.38;;;;;;;0.88;75.01;97172.06;4969375;28;20058;-78
2022/01/27 09:08:50;;;;;;;42.20;20.55;;;;;;;0.90;74.28;97170.00;4970636;28;20054;-78
2022/01/27 09:11:17;;;;;;;40.90;18.25;;;;;;;0.90;74.21;97173.50;4970226;28;20059;-77
2022/01/27 09:13:44;;;;;;;37.83;19.35;;;;;;;0.96;74.21;97174.41;4969235;28;20051;-78
2022/01/27 09:16:11;;;;;;;44.50;19.98;;;;;;;0.99;73.77;97168.56;4969534;28;20054;-78
2022/01/27 09:18:38;;;;;;;36.97;18.98;;;;;;;1.07;73.87;97170.06;4970590;28;20065;-78
2022/01/27 09:21:09;;;;;;;36.25;17.83;;;;;;;1.16;73.38;97157.91;4969833;28;20050;-78
2022/01/27 09:23:36;;;;;;;34.30;17.75;;;;;;;1.18;72.78;97153.94;4970493;28;20058;-78
2022/01/27 09:26:08;;;;;;;34.80;17.77;;;;;;;1.19;72.38;97147.50;4969760;28;20055;-78
2022/01/27 09:28:34;;;;;;;34.75;17.35;;;;;;;1.33;72.26;97147.22;4970436;28;20051;-78
2022/01/27 09:31:02;;;;;;;33.92;16.73;;;;;;;1.44;71.71;97157.09;4970132;28;20589;-78
2022/01/27 09:33:29;;;;;;;30.40;16.17;;;;;;;1.54;71.30;97154.59;4969760;28;20175;-78
2022/01/27 09:35:55;;;;;;;35.58;16.88;;;;;;;1.72;71.99;97162.47;4969783;28;20055;-78
2022/01/27 09:38:22;;;;;;;34.20;17.13;;;;;;;1.92;71.83;97161.16;4969605;28;20422;-78
2022/01/27 09:40:49;;;;;;;31.40;16.45;;;;;;;2.17;69.48;97183.09;4970333;28;20061;-78
2022/01/27 09:43:19;;;;;;;32.33;16.35;;;;;;;2.42;68.48;97177.31;4967851;28;20138;-78
2022/01/27 09:45:46;;;;;;;26.80;14.68;;;;;;;2.65;66.22;97176.28;4969580;28;20042;-78
2022/01/27 09:48:15;;;;;;;23.98;13.10;;;;;;;2.91;65.24;97174.78;4969710;28;20419;-78
2022/01/27 09:53:23;;;;;;;22.05;11.82;;;;;;;3.29;62.42;97165.84;4968952;28;20047;-77
2022/01/27 09:55:50;;;;;;;18.85;10.88;;;;;;;3.49;61.96;97164.44;4969215;28;20514;-75
2022/01/27 09:58:18;;;;;;;18.35;10.35;;;;;;;3.68;60.55;97160.34;4969398;28;20058;-78
2022/01/27 10:00:44;;;;;;;17.73;8.95;;;;;;;3.76;57.51;97154.50;4969586;28;20054;-78
2022/01/27 10:03:13;;;;;;;15.60;8.93;;;;;;;3.99;56.94;97145.28;4969049;28;20050;-77
2022/01/27 10:05:42;;;;;;;15.30;8.32;;;;;;;4.09;56.19;97147.25;4968813;28;20081;-78
2022/01/27 10:08:14;;;;;;;15.48;8.38;;;;;;;4.05;57.05;97149.63;4968851;28;20054;-77
2022/01/27 10:10:42;;;;;;;14.88;8.57;;;;;;;3.84;56.76;97147.81;4969785;28;20055;-78
2022/01/27 10:13:10;;;;;;;16.05;8.55;;;;;;;3.94;57.24;97145.22;4967434;28;20042;-78
2022/01/27 10:15:43;;;;;;;16.85;8.95;;;;;;;4.14;57.07;97150.78;4932513;29;20418;-78
2022/01/27 10:18:12;;;;;;;14.23;7.95;;;;;;;4.27;56.70;97149.53;4949527;29;20403;-78
2022/01/27 10:20:42;;;;;;;15.98;9.23;;;;;;;4.43;55.37;97150.47;4950103;29;20048;-78
2022/01/27 10:23:17;;;;;;;21.63;9.20;;;;;;;4.67;57.13;97150.91;4949761;29;20050;-78
2022/01/27 10:25:51;;;;;;;15.30;8.82;;;;;;;5.13;55.97;97156.53;4949795;29;20051;-75
2022/01/27 10:28:41;;;;;;;19.88;9.25;;;;;;;5.32;54.21;97152.28;4949641;29;20051;-76
2022/01/27 10:31:11;;;;;;;18.85;9.40;;;;;;;5.61;55.79;97152.66;4949729;29;20098;-77
2022/01/27 10:33:52;;;;;;;21.65;9.82;;;;;;;5.90;54.77;97144.88;4950416;29;20047;-76
2022/01/27 10:36:22;;;;;;;22.02;10.00;;;;;;;6.09;53.60;97147.88;4949256;29;20058;-76
2022/01/27 10:38:51;;;;;;;18.52;10.10;;;;;;;6.29;53.31;97136.28;4949966;29;20067;-77
2022/01/27 10:41:18;;;;;;;21.88;11.40;;;;;;;6.40;53.53;97135.19;4949662;29;20043;-76
2022/01/27 10:43:45;;;;;;;24.30;10.60;;;;;;;6.52;52.37;97130.31;4955791;28;20054;-75
2022/01/27 10:46:21;;;;;;;21.60;10.40;;;;;;;6.61;51.89;97121.63;4967943;28;20050;-76
2022/01/27 10:48:53;;;;;;;27.58;10.40;;;;;;;6.69;50.28;97116.47;4968850;28;20051;-79
2022/01/27 10:51:25;;;;;;;20.08;9.90;;;;;;;6.77;50.58;97120.50;4969143;28;20062;-77
2022/01/27 10:53:57;;;;;;;16.25;9.38;;;;;;;6.97;49.47;97114.22;4969254;28;20763;-75
2022/01/27 10:56:26;;;;;;;16.83;8.47;;;;;;;6.77;48.10;97120.50;4967952;28;20091;-78
2022/01/27 10:58:55;;;;;;;17.88;9.48;;;;;;;6.75;49.71;97122.69;4969128;28;20691;-78
2022/01/27 11:01:26;;;;;;;18.55;9.18;;;;;;;6.96;48.85;97126.16;4968605;28;20577;-77
2022/01/27 11:03:54;;;;;;;19.98;10.65;;;;;;;7.10;49.87;97123.66;4968982;28;20058;-79
2022/01/27 11:06:23;;;;;;;23.48;11.23;;;;;;;7.27;49.38;97122.22;4967983;28;21086;-78
2022/01/27 11:08:53;;;;;;;24.25;11.93;;;;;;;7.46;49.64;97116.97;4969197;28;20055;-79
2022/01/27 11:11:22;;;;;;;21.77;11.82;;;;;;;7.63;49.51;97113.13;4968898;28;20069;-75
2022/01/27 11:13:49;;;;;;;22.88;12.35;;;;;;;7.44;48.52;97113.75;4969887;28;20047;-75
2022/01/27 11:16:18;;;;;;;22.00;10.95;;;;;;;7.21;48.63;97104.38;4971776;28;20417;-77
2022/01/27 11:18:47;;;;;;;20.63;11.88;;;;;;;6.93;49.05;97108.53;4973056;28;20368;-76
2022/01/27 11:21:27;;;;;;;22.98;11.73;;;;;;;6.73;48.92;97114.00;4972565;28;20059;-77
2022/01/27 11:24:14;;;;;;;20.08;10.93;;;;;;;6.37;51.10;97114.09;4972653;28;20058;-76
2022/01/27 11:26:43;;;;;;;21.67;12.10;;;;;;;6.12;51.86;97108.69;4972209;28;20106;-75
2022/01/27 11:29:11;;;;;;;23.60;11.15;;;;;;;5.96;52.40;97103.28;4972343;28;20153;-79
2022/01/27 11:31:46;;;;;;;18.92;10.98;;;;;;;5.77;52.12;97107.56;4972661;28;20061;-76
2022/01/27 11:34:14;;;;;;;18.05;10.55;;;;;;;5.68;52.50;97103.75;4972211;28;20054;-76
2022/01/27 11:37:00;;;;;;;16.67;10.43;;;;;;;5.54;52.87;97099.97;4972130;28;20069;-75
2022/01/27 11:39:48;;;;;;;20.67;11.02;;;;;;;5.69;53.66;97094.56;4972448;28;20046;-76
2022/01/27 11:42:14;;;;;;;19.85;10.43;;;;;;;5.71;52.86;97092.41;4972027;28;20058;-76
2022/01/27 11:44:45;;;;;;;18.40;10.25;;;;;;;5.69;53.02;97089.16;4970467;28;20738;-76
2022/01/27 11:47:22;;;;;;;21.98;10.82;;;;;;;5.80;53.57;97079.19;4971533;28;20133;-76
2022/01/27 11:50:04;;;;;;;21.35;10.82;;;;;;;5.67;52.77;97075.13;4972405;28;20074;-76
2022/01/27 11:52:32;;;;;;;26.30;10.32;;;;;;;5.68;53.48;97082.13;4972092;28;20502;-76
2022/01/27 11:55:40;;;;;;;19.48;10.35;;;;;;;5.60;53.30;97071.88;4971866;28;20051;-76
2022/01/27 11:58:17;;;;;;;19.63;11.20;;;;;;;5.58;53.89;97072.13;4971588;28;20058;-76
2022/01/27 12:01:06;;;;;;;23.75;11.20;;;;;;;5.77;54.48;97058.91;4972284;28;20485;-76
2022/01/27 12:03:33;;;;;;;24.45;12.30;;;;;;;5.79;55.03;97067.53;4971954;28;20085;-75